createdAt,value
2022-12-03T00:01:24.472Z,98936.88
2022-12-03T00:03:51.492Z,98941.66
2022-12-03T00:06:18.891Z,98934.63
2022-12-03T00:08:45.708Z,98939.44
2022-12-03T00:11:13.911Z,98941.09
2022-12-03T00:13:40.741Z,98938.63
2022-12-03T00:16:07.941Z,98938.63
2022-12-03T00:18:35.336Z,98941.53
2022-12-03T00:21:02.276Z,98939.69
2022-12-03T00:23:29.123Z,98942.59
2022-12-03T00:25:55.971Z,98943.66
2022-12-03T00:28:24.255Z,98950.06
2022-12-03T00:30:54.053Z,98946.56
2022-12-03T00:33:21.203Z,98940.34
2022-12-03T00:35:48.297Z,98949.50
2022-12-03T00:38:15.357Z,98940.81
2022-12-03T00:40:42.273Z,98951.81
2022-12-03T00:43:09.101Z,98949.94
2022-12-03T00:45:37.376Z,98936.47
2022-12-03T00:48:04.640Z,98939.16
2022-12-03T00:50:31.571Z,98941.88
2022-12-03T00:52:58.412Z,98945.00
2022-12-03T00:55:25.305Z,98940.47
2022-12-03T00:57:52.163Z,98941.53
2022-12-03T01:00:24.493Z,98940.69
2022-12-03T01:02:53.195Z,98947.97
2022-12-03T01:05:20.741Z,98936.59
2022-12-03T01:07:47.654Z,98942.56
2022-12-03T01:10:14.819Z,98936.81
2022-12-03T01:12:41.755Z,98943.03
2022-12-03T01:15:09.714Z,98944.88
2022-12-03T01:17:37.119Z,98943.25
2022-12-03T01:20:08.007Z,98942.41
2022-12-03T01:22:34.926Z,98947.00
2022-12-03T01:25:01.783Z,98942.66
2022-12-03T01:27:28.632Z,98941.84
2022-12-03T01:29:55.469Z,98941.63
2022-12-03T01:32:22.375Z,98943.69
2022-12-03T01:34:51.220Z,98942.06
2022-12-03T01:37:22.107Z,98950.16
2022-12-03T01:39:49.253Z,98952.22
2022-12-03T01:42:18.549Z,98951.44
2022-12-03T01:44:46.173Z,98942.53
2022-12-03T01:47:16.201Z,98947.91
2022-12-03T01:49:46.915Z,98955.97
2022-12-03T01:52:16.386Z,98945.22
2022-12-03T01:54:47.476Z,98951.66
2022-12-03T01:57:21.172Z,98952.72
2022-12-03T01:59:48.788Z,98956.44
2022-12-03T02:02:21.078Z,98957.50
2022-12-03T02:04:48.134Z,98961.00
2022-12-03T02:07:24.385Z,98961.81
2022-12-03T02:09:53.801Z,98955.25
2022-12-03T02:12:25.821Z,98957.94
2022-12-03T02:14:53.747Z,98955.25
2022-12-03T02:17:21.212Z,98957.13
2022-12-03T02:19:48.944Z,98949.84
2022-12-03T02:22:27.080Z,98950.91
2022-12-03T02:25:04.774Z,98948.22
2022-12-03T02:27:31.740Z,98951.13
2022-12-03T02:29:58.633Z,98942.25
2022-12-03T02:32:25.592Z,98947.66
2022-12-03T02:34:52.735Z,98953.25
2022-12-03T02:37:24.391Z,98942.47
2022-12-03T02:39:52.589Z,98942.25
2022-12-03T02:42:36.638Z,98941.66
2022-12-03T02:45:09.099Z,98944.00
2022-12-03T02:47:41.006Z,98946.47
2022-12-03T02:50:09.892Z,98943.16
2022-12-03T02:52:37.366Z,98947.47
2022-12-03T02:55:06.767Z,98945.63
2022-12-03T02:57:37.699Z,98951.22
2022-12-03T03:00:06.653Z,98946.69
2022-12-03T03:02:35.031Z,98946.69
2022-12-03T03:05:02.497Z,98945.84
2022-12-03T03:07:29.568Z,98944.22
2022-12-03T03:09:56.559Z,98945.03
2022-12-03T03:12:23.616Z,98947.75
2022-12-03T03:14:52.610Z,98941.53
2022-12-03T03:17:19.764Z,98943.38
2022-12-03T03:19:46.862Z,98935.31
2022-12-03T03:22:13.710Z,98933.44
2022-12-03T03:24:40.559Z,98921.84
2022-12-03T03:27:07.663Z,98931.81
2022-12-03T03:29:35.033Z,98920.19
2022-12-03T03:32:04.442Z,98923.13
2022-12-03T03:34:32.984Z,98927.69
2022-12-03T03:36:59.895Z,98926.66
2022-12-03T03:39:26.751Z,98923.13
2022-12-03T03:41:53.619Z,98926.88
2022-12-03T03:44:20.585Z,98922.31
2022-12-03T03:46:48.840Z,98926.88
2022-12-03T03:49:17.350Z,98924.19
2022-12-03T03:51:44.715Z,98936.59
2022-12-03T03:54:12.229Z,98927.94
2022-12-03T03:56:39.214Z,98928.50
2022-12-03T03:59:06.125Z,98921.72
2022-12-03T04:01:33.551Z,98918.19
2022-12-03T04:04:00.876Z,98931.66
2022-12-03T04:06:29.227Z,98923.56
2022-12-03T04:08:56.084Z,98923.81
2022-12-03T04:11:41.345Z,98927.31
2022-12-03T04:14:08.247Z,98926.50
2022-12-03T04:16:35.106Z,98931.06
2022-12-03T04:19:01.953Z,98933.97
2022-12-03T04:21:48.420Z,98929.44
2022-12-03T04:24:15.290Z,98931.28
2022-12-03T04:27:00.771Z,98928.59
2022-12-03T04:29:27.661Z,98926.97
2022-12-03T04:32:13.132Z,98926.13
2022-12-03T04:34:58.422Z,98932.56
2022-12-03T04:37:26.640Z,98923.88
2022-12-03T04:39:53.490Z,98920.34
2022-12-03T04:42:20.327Z,98920.16
2022-12-03T04:44:47.470Z,98916.63
2022-12-03T04:47:16.173Z,98916.63
2022-12-03T04:49:45.218Z,98915.81
2022-12-03T04:52:13.462Z,98912.88
2022-12-03T04:54:42.202Z,98900.50
2022-12-03T04:57:09.967Z,98904.22
2022-12-03T04:59:37.380Z,98905.88
2022-12-03T05:02:05.548Z,98908.56
2022-12-03T05:04:33.046Z,98905.03
2022-12-03T05:06:59.916Z,98904.22
2022-12-03T05:09:26.814Z,98908.75
2022-12-03T05:11:55.023Z,98902.56
2022-12-03T05:14:22.335Z,98906.91
2022-12-03T05:16:49.243Z,98915.81
2022-12-03T05:19:16.264Z,98912.09
2022-12-03T05:21:43.106Z,98914.97
2022-12-03T05:24:10.008Z,98904.22
2022-12-03T05:26:36.834Z,98905.25
2022-12-03T05:29:05.364Z,98907.97
2022-12-03T05:31:32.190Z,98918.72
2022-12-03T05:33:59.095Z,98916.03
2022-12-03T05:36:26.120Z,98917.88
2022-12-03T05:38:52.941Z,98921.63
2022-12-03T05:41:38.540Z,98913.56
2022-12-03T05:44:06.769Z,98913.78
2022-12-03T05:46:33.825Z,98915.66
2022-12-03T05:49:00.947Z,98915.66
2022-12-03T05:51:28.054Z,98912.16
2022-12-03T05:53:57.197Z,98904.88
2022-12-03T05:56:24.170Z,98907.78
2022-12-03T05:58:51.083Z,98910.25
2022-12-03T06:01:19.343Z,98923.72
2022-12-03T06:03:46.304Z,98915.06
2022-12-03T06:06:13.203Z,98915.06
2022-12-03T06:08:40.052Z,98919.63
2022-12-03T06:11:06.862Z,98925.84
2022-12-03T06:13:33.802Z,98923.13
2022-12-03T06:16:01.320Z,98925.00
2022-12-03T06:18:29.641Z,98925.22
2022-12-03T06:20:56.455Z,98924.16
2022-12-03T06:23:23.318Z,98929.56
2022-12-03T06:25:50.187Z,98937.63
2022-12-03T06:28:17.018Z,98945.69
2022-12-03T06:30:44.109Z,98943.25
2022-12-03T06:33:11.071Z,98945.13
2022-12-03T06:35:39.250Z,98945.13
2022-12-03T06:38:06.134Z,98943.25
2022-12-03T06:40:33.119Z,98943.25
2022-12-03T06:42:59.994Z,98938.91
2022-12-03T06:45:26.807Z,98942.66
2022-12-03T06:47:53.711Z,98940.56
2022-12-03T06:50:20.545Z,98944.19
2022-12-03T06:52:48.735Z,98943.56
2022-12-03T06:55:15.854Z,98934.81
2022-12-03T06:57:42.691Z,98934.94
2022-12-03T07:00:10.877Z,98930.31
2022-12-03T07:02:37.903Z,98923.19
2022-12-03T07:05:05.298Z,98930.34
2022-12-03T07:07:32.325Z,98933.75
2022-12-03T07:10:00.649Z,98928.84
2022-12-03T07:12:27.492Z,98924.19
2022-12-03T07:14:54.478Z,98927.38
2022-12-03T07:17:21.515Z,98922.69
2022-12-03T07:19:48.364Z,98922.38
2022-12-03T07:22:15.323Z,98911.53
2022-12-03T07:24:42.273Z,98914.09
2022-12-03T07:27:10.470Z,98911.06
2022-12-03T07:29:37.282Z,98910.94
2022-12-03T07:32:04.552Z,98911.06
2022-12-03T07:34:31.401Z,98918.19
2022-12-03T07:36:58.744Z,98929.34
2022-12-03T07:39:25.608Z,98917.59
2022-12-03T07:41:52.517Z,98916.91
2022-12-03T07:44:20.738Z,98910.22
2022-12-03T07:46:47.672Z,98912.44
2022-12-03T07:49:14.798Z,98901.19
2022-12-03T07:51:41.712Z,98908.03
2022-12-03T07:54:08.819Z,98904.81
2022-12-03T07:56:36.076Z,98899.69
2022-12-03T07:59:02.915Z,98896.50
2022-12-03T08:01:31.138Z,98899.78
2022-12-03T08:03:58.017Z,98905.53
2022-12-03T08:06:24.878Z,98904.72
2022-12-03T08:08:51.713Z,98906.34
2022-12-03T08:11:18.577Z,98904.22
2022-12-03T08:13:45.450Z,98914.78
2022-12-03T08:16:17.875Z,98909.38
2022-12-03T08:18:47.765Z,98921.59
2022-12-03T08:21:17.878Z,98913.25
2022-12-03T08:23:45.595Z,98910.31
2022-12-03T08:26:20.716Z,98911.16
2022-12-03T08:28:47.773Z,98903.63
2022-12-03T08:31:21.187Z,98910.66
2022-12-03T08:33:51.678Z,98908.78
2022-12-03T08:36:22.867Z,98912.31
2022-12-03T08:38:52.046Z,98911.25
2022-12-03T08:41:38.390Z,98911.25
2022-12-03T08:44:24.838Z,98906.94
2022-12-03T08:46:55.692Z,98906.94
2022-12-03T08:49:23.930Z,98900.22
2022-12-03T08:51:56.013Z,98908.31
2022-12-03T08:54:24.970Z,98901.03
2022-12-03T08:56:51.836Z,98898.31
2022-12-03T08:59:26.062Z,98908.09
2022-12-03T09:01:53.829Z,98909.72
2022-12-03T09:04:29.208Z,98903.50
2022-12-03T09:06:56.644Z,98905.97
2022-12-03T09:09:24.511Z,98907.03
2022-12-03T09:11:52.013Z,98901.84
2022-12-03T09:14:21.269Z,98899.75
2022-12-03T09:16:49.225Z,98904.31
2022-12-03T09:19:16.337Z,98905.16
2022-12-03T09:21:45.145Z,98901.84
2022-12-03T09:24:12.329Z,98905.38
2022-12-03T09:26:39.226Z,98898.31
2022-12-03T09:29:11.729Z,98891.28
2022-12-03T09:31:39.179Z,98905.38
2022-12-03T09:34:06.531Z,98900.00
2022-12-03T09:36:33.833Z,98900.22
2022-12-03T09:39:02.068Z,98894.81
2022-12-03T09:41:28.964Z,98894.00
2022-12-03T09:44:05.477Z,98902.69
2022-12-03T09:46:35.522Z,98908.56
2022-12-03T09:49:03.082Z,98905.84
2022-12-03T09:51:33.051Z,98906.94
2022-12-03T09:54:00.413Z,98901.53
2022-12-03T09:56:32.274Z,98898.81
2022-12-03T09:58:59.436Z,98891.53
2022-12-03T10:01:30.087Z,98897.53
2022-12-03T10:03:58.656Z,98894.47
2022-12-03T10:06:25.635Z,98894.47
2022-12-03T10:08:55.108Z,98890.50
2022-12-03T10:11:24.636Z,98886.97
2022-12-03T10:13:55.261Z,98889.91
2022-12-03T10:16:22.513Z,98886.13
2022-12-03T10:18:52.526Z,98885.34
2022-12-03T10:21:23.134Z,98886.13
2022-12-03T10:23:55.097Z,98877.22
2022-12-03T10:26:40.139Z,98883.66
2022-12-03T10:29:14.247Z,98881.56
2022-12-03T10:31:41.169Z,98876.41
2022-12-03T10:34:09.368Z,98872.88
2022-12-03T10:36:36.598Z,98866.69
2022-12-03T10:39:09.588Z,98862.91
2022-12-03T10:41:38.634Z,98858.56
2022-12-03T10:44:17.535Z,98853.97
2022-12-03T10:46:45.757Z,98854.25
2022-12-03T10:49:17.243Z,98853.41
2022-12-03T10:51:44.200Z,98859.66
2022-12-03T10:54:17.921Z,98844.72
2022-12-03T10:56:45.547Z,98849.09
2022-12-03T10:59:19.834Z,98839.31
2022-12-03T11:01:47.675Z,98835.00
2022-12-03T11:04:23.647Z,98829.59
2022-12-03T11:06:50.995Z,98830.66
2022-12-03T11:09:21.905Z,98819.03
2022-12-03T11:11:49.248Z,98819.88
2022-12-03T11:14:56.616Z,98816.09
2022-12-03T11:17:51.063Z,98811.19
2022-12-03T11:20:51.342Z,98802.53
2022-12-03T11:23:56.564Z,98812.25
2022-12-03T11:27:02.151Z,98814.16
2022-12-03T11:29:52.372Z,98818.72
2022-12-03T11:33:19.834Z,98807.31
2022-12-03T11:36:11.880Z,98809.47
2022-12-03T11:38:47.340Z,98801.94
2022-12-03T11:41:19.288Z,98801.13
2022-12-03T11:44:01.907Z,98789.25
2022-12-03T11:46:40.568Z,98795.72
2022-12-03T11:49:24.595Z,98783.03
2022-12-03T11:51:51.862Z,98779.31
2022-12-03T11:54:21.521Z,98775.78
2022-12-03T11:56:49.579Z,98769.53
2022-12-03T11:59:17.627Z,98775.78
2022-12-03T12:01:45.389Z,98762.28
2022-12-03T12:04:33.486Z,98768.28
2022-12-03T12:07:01.602Z,98762.88
2022-12-03T12:09:47.889Z,98756.66
2022-12-03T12:12:18.966Z,98745.84
2022-12-03T12:14:45.914Z,98739.38
2022-12-03T12:17:31.582Z,98744.78
2022-12-03T12:20:24.656Z,98744.00
2022-12-03T12:22:54.262Z,98741.53
2022-12-03T12:25:40.965Z,98731.28
2022-12-03T12:28:08.625Z,98737.75
2022-12-03T12:30:36.909Z,98726.13
2022-12-03T12:33:19.787Z,98718.63
2022-12-03T12:35:47.998Z,98712.41
2022-12-03T12:38:17.826Z,98713.00
2022-12-03T12:40:46.928Z,98717.31
2022-12-03T12:43:25.151Z,98713.78
2022-12-03T12:45:54.913Z,98709.72
2022-12-03T12:48:26.703Z,98719.94
2022-12-03T12:51:01.203Z,98724.81
2022-12-03T12:53:31.309Z,98718.88
2022-12-03T12:55:59.845Z,98721.34
2022-12-03T12:58:28.705Z,98725.91
2022-12-03T13:00:58.592Z,98716.16
2022-12-03T13:03:27.570Z,98710.78
2022-12-03T13:05:57.675Z,98720.50
2022-12-03T13:08:27.885Z,98716.72
2022-12-03T13:10:55.583Z,98717.81
2022-12-03T13:13:25.230Z,98705.16
2022-12-03T13:15:58.608Z,98697.84
2022-12-03T13:18:33.175Z,98707.84
2022-12-03T13:21:13.621Z,98708.06
2022-12-03T13:23:40.662Z,98707.00
2022-12-03T13:26:34.112Z,98717.00
2022-12-03T13:29:10.938Z,98718.88
2022-12-03T13:31:43.534Z,98711.84
2022-12-03T13:34:16.451Z,98712.66
2022-12-03T13:36:50.563Z,98714.53
2022-12-03T13:39:29.294Z,98718.03
2022-12-03T13:42:15.641Z,98719.94
2022-12-03T13:44:46.225Z,98717.47
2022-12-03T13:47:16.164Z,98718.28
2022-12-03T13:49:47.861Z,98715.59
2022-12-03T13:52:19.399Z,98713.72
2022-12-03T13:54:49.266Z,98702.09
2022-12-03T13:57:16.128Z,98699.38
2022-12-03T13:59:43.023Z,98692.13
2022-12-03T14:02:10.145Z,98686.72
2022-12-03T14:04:37.125Z,98695.66
2022-12-03T14:07:03.969Z,98702.09
2022-12-03T14:09:32.198Z,98702.09
2022-12-03T14:12:17.466Z,98708.31
2022-12-03T14:14:44.773Z,98706.69
2022-12-03T14:17:11.746Z,98708.56
2022-12-03T14:19:38.698Z,98710.19
2022-12-03T14:22:08.018Z,98715.34
2022-12-03T14:24:36.488Z,98711.84
2022-12-03T14:27:03.336Z,98702.91
2022-12-03T14:29:30.265Z,98700.22
2022-12-03T14:31:57.224Z,98707.47
2022-12-03T14:34:24.172Z,98711.84
2022-12-03T14:36:51.061Z,98699.16
2022-12-03T14:39:17.946Z,98698.34
2022-12-03T14:42:04.936Z,98701.06
2022-12-03T14:44:31.903Z,98701.06
2022-12-03T14:46:58.791Z,98702.09
2022-12-03T14:49:25.685Z,98701.06
2022-12-03T14:51:52.544Z,98698.34
2022-12-03T14:54:20.397Z,98701.06
2022-12-03T14:56:48.676Z,98701.06
2022-12-03T14:59:15.550Z,98697.53
2022-12-03T15:01:42.536Z,98699.38
2022-12-03T15:04:09.496Z,98696.69
2022-12-03T15:06:36.409Z,98693.75
2022-12-03T15:09:04.284Z,98696.44
2022-12-03T15:11:31.215Z,98692.97
2022-12-03T15:13:59.541Z,98702.09
2022-12-03T15:16:26.476Z,98697.53
2022-12-03T15:18:53.709Z,98695.06
2022-12-03T15:21:20.602Z,98703.75
2022-12-03T15:23:47.519Z,98704.56
2022-12-03T15:26:14.396Z,98706.22
2022-12-03T15:28:45.339Z,98709.72
2022-12-03T15:31:16.316Z,98706.22
2022-12-03T15:33:43.279Z,98716.41
2022-12-03T15:36:10.208Z,98722.63
2022-12-03T15:38:37.105Z,98716.41
2022-12-03T15:41:21.027Z,98713.72
2022-12-03T15:43:48.044Z,98715.34
2022-12-03T15:46:16.276Z,98713.47
2022-12-03T15:48:43.387Z,98708.31
2022-12-03T15:51:10.368Z,98704.56
2022-12-03T15:53:37.442Z,98707.00
2022-12-03T15:56:04.735Z,98705.38
2022-12-03T15:58:31.738Z,98705.38
2022-12-03T16:00:58.820Z,98712.66
2022-12-03T16:03:27.165Z,98717.00
2022-12-03T16:05:54.116Z,98718.03
2022-12-03T16:08:21.345Z,98715.34
2022-12-03T16:10:48.325Z,98714.78
2022-12-03T16:13:15.149Z,98720.97
2022-12-03T16:15:42.104Z,98712.88
2022-12-03T16:18:09.288Z,98703.75
2022-12-03T16:20:37.468Z,98715.59
2022-12-03T16:23:04.428Z,98710.19
2022-12-03T16:25:31.279Z,98712.66
2022-12-03T16:27:58.419Z,98710.19
2022-12-03T16:30:25.272Z,98702.91
2022-12-03T16:32:52.137Z,98712.88
2022-12-03T16:35:18.975Z,98696.44
2022-12-03T16:37:47.251Z,98704.78
2022-12-03T16:40:14.301Z,98709.94
2022-12-03T16:42:41.285Z,98699.97
2022-12-03T16:45:09.160Z,98701.84
2022-12-03T16:47:36.583Z,98699.38
2022-12-03T16:50:05.037Z,98698.59
2022-12-03T16:52:32.193Z,98704.78
2022-12-03T16:55:00.452Z,98700.22
2022-12-03T16:57:33.148Z,98697.28
2022-12-03T17:00:00.885Z,98689.19
2022-12-03T17:02:28.048Z,98683.19
2022-12-03T17:04:55.109Z,98688.59
2022-12-03T17:07:21.930Z,98688.34
2022-12-03T17:09:48.893Z,98689.19
2022-12-03T17:12:17.155Z,98680.25
2022-12-03T17:14:44.109Z,98679.47
2022-12-03T17:17:10.971Z,98678.63
2022-12-03T17:19:37.907Z,98682.97
2022-12-03T17:22:04.721Z,98673.00
2022-12-03T17:24:31.575Z,98674.88
2022-12-03T17:26:58.562Z,98679.47
2022-12-03T17:29:26.788Z,98675.09
2022-12-03T17:31:53.711Z,98669.97
2022-12-03T17:34:20.586Z,98662.69
2022-12-03T17:36:47.404Z,98670.53
2022-12-03T17:39:14.288Z,98671.38
2022-12-03T17:41:41.183Z,98664.91
2022-12-03T17:44:11.320Z,98672.16
2022-12-03T17:46:41.325Z,98673.47
2022-12-03T17:49:08.168Z,98665.97
2022-12-03T17:51:35.020Z,98669.72
2022-12-03T17:54:01.859Z,98659.50
2022-12-03T17:56:28.714Z,98659.75
2022-12-03T17:58:57.153Z,98668.91
2022-12-03T18:01:24.111Z,98660.81
2022-12-03T18:03:52.464Z,98653.28
2022-12-03T18:06:19.366Z,98657.63
2022-12-03T18:08:46.212Z,98660.34
2022-12-03T18:11:13.047Z,98659.50
2022-12-03T18:13:39.965Z,98649.78
2022-12-03T18:16:07.384Z,98655.19
2022-12-03T18:18:34.248Z,98644.38
2022-12-03T18:21:04.267Z,98641.69
2022-12-03T18:23:32.081Z,98639.22
2022-12-03T18:25:58.941Z,98634.63
2022-12-03T18:28:25.930Z,98640.84
2022-12-03T18:30:53.114Z,98637.34
2022-12-03T18:33:21.217Z,98637.34
2022-12-03T18:35:48.109Z,98633.59
2022-12-03T18:38:18.033Z,98644.38
2022-12-03T18:40:46.287Z,98642.72
2022-12-03T18:43:14.493Z,98648.13
2022-12-03T18:45:42.122Z,98638.16
2022-12-03T18:48:12.544Z,98640.03
2022-12-03T18:50:39.646Z,98640.03
2022-12-03T18:53:06.493Z,98635.47
2022-12-03T18:55:36.040Z,98628.19
2022-12-03T18:58:03.158Z,98638.16
2022-12-03T19:00:30.086Z,98633.84
2022-12-03T19:03:04.838Z,98626.53
2022-12-03T19:05:34.376Z,98631.69
2022-12-03T19:08:01.923Z,98631.94
2022-12-03T19:10:29.129Z,98635.47
2022-12-03T19:12:57.579Z,98631.94
2022-12-03T19:15:24.509Z,98632.53
2022-12-03T19:17:51.670Z,98622.81
2022-12-03T19:20:18.639Z,98624.91
2022-12-03T19:22:45.509Z,98622.81
2022-12-03T19:25:12.388Z,98627.38
2022-12-03T19:27:39.293Z,98630.06
2022-12-03T19:30:08.998Z,98620.09
2022-12-03T19:32:36.141Z,98621.97
2022-12-03T19:35:05.293Z,98632.53
2022-12-03T19:37:33.573Z,98630.06
2022-12-03T19:40:01.064Z,98626.53
2022-12-03T19:42:28.052Z,98626.53
2022-12-03T19:44:54.979Z,98624.66
2022-12-03T19:47:24.744Z,98629.81
2022-12-03T19:49:53.229Z,98625.50
2022-12-03T19:52:20.420Z,98629.22
2022-12-03T19:54:47.287Z,98627.38
2022-12-03T19:57:18.075Z,98623.84
2022-12-03T19:59:48.504Z,98618.44
2022-12-03T20:02:15.398Z,98619.50
2022-12-03T20:04:43.731Z,98620.34
2022-12-03T20:07:10.631Z,98623.84
2022-12-03T20:09:37.483Z,98625.50
2022-12-03T20:12:04.622Z,98621.97
2022-12-03T20:14:31.571Z,98623.03
2022-12-03T20:17:01.330Z,98623.84
2022-12-03T20:19:28.265Z,98624.91
2022-12-03T20:22:02.254Z,98625.75
2022-12-03T20:24:29.771Z,98622.81
2022-12-03T20:26:56.598Z,98623.84
2022-12-03T20:29:23.543Z,98626.81
2022-12-03T20:31:50.400Z,98625.97
2022-12-03T20:34:17.466Z,98620.34
2022-12-03T20:36:45.515Z,98622.44
2022-12-03T20:39:13.704Z,98620.59
2022-12-03T20:41:40.650Z,98621.41
2022-12-03T20:44:08.454Z,98623.03
2022-12-03T20:46:36.327Z,98621.97
2022-12-03T20:49:04.058Z,98618.22
2022-12-03T20:51:31.188Z,98616.56
2022-12-03T20:53:59.118Z,98615.44
2022-12-03T20:56:31.373Z,98616.50
2022-12-03T20:59:04.887Z,98609.47
2022-12-03T21:01:31.891Z,98608.88
2022-12-03T21:03:58.986Z,98605.63
2022-12-03T21:06:28.085Z,98602.34
2022-12-03T21:08:56.706Z,98604.69
2022-12-03T21:11:25.784Z,98599.53
2022-12-03T21:13:54.553Z,98598.69
2022-12-03T21:16:45.421Z,98593.00
2022-12-03T21:19:11.740Z,98593.22
2022-12-03T21:21:38.565Z,98579.97
2022-12-03T21:24:05.961Z,98583.97
2022-12-03T21:26:33.592Z,98595.25
2022-12-03T21:29:01.838Z,98590.34
2022-12-03T21:31:30.398Z,98591.66
2022-12-03T21:33:58.046Z,98587.56
2022-12-03T21:36:25.650Z,98577.25
2022-12-03T21:38:52.717Z,98581.53
2022-12-03T21:41:19.750Z,98579.84
2022-12-03T21:43:46.735Z,98577.91
2022-12-03T21:47:10.205Z,98571.94
2022-12-03T21:49:04.049Z,98581.31
2022-12-03T21:51:31.025Z,98573.72
2022-12-03T21:54:00.632Z,98570.44
2022-12-03T21:56:30.344Z,98569.84
2022-12-03T21:58:57.211Z,98569.53
2022-12-03T22:01:25.705Z,98563.81
2022-12-03T22:03:52.665Z,98567.56
2022-12-03T22:06:19.646Z,98562.16
2022-12-03T22:08:46.835Z,98565.38
2022-12-03T22:11:15.966Z,98571.78
2022-12-03T22:13:43.519Z,98563.13
2022-12-03T22:16:12.352Z,98567.13
2022-12-03T22:18:40.884Z,98567.38
2022-12-03T22:21:09.591Z,98559.28
2022-12-03T22:23:36.751Z,98561.59
2022-12-03T22:26:06.960Z,98571.56
2022-12-03T22:28:34.673Z,98570.97
2022-12-03T22:31:05.878Z,98573.69
2022-12-03T22:33:32.821Z,98568.53
2022-12-03T22:36:02.669Z,98567.13
2022-12-03T22:38:30.945Z,98571.13
2022-12-03T22:40:58.006Z,98562.25
2022-12-03T22:43:25.262Z,98560.59
2022-12-03T22:45:53.636Z,98554.63
2022-12-03T22:48:21.218Z,98557.31
2022-12-03T22:50:48.613Z,98558.38
2022-12-03T22:53:17.447Z,98557.78
2022-12-03T22:55:44.711Z,98563.19
2022-12-03T22:58:11.775Z,98562.34
2022-12-03T23:00:41.034Z,98566.94
2022-12-03T23:03:08.309Z,98563.66
2022-12-03T23:05:38.570Z,98567.19
2022-12-03T23:08:07.046Z,98563.66
2022-12-03T23:10:36.794Z,98558.50
2022-12-03T23:13:04.827Z,98564.16
2022-12-03T23:15:32.466Z,98557.94
2022-12-03T23:18:00.239Z,98543.91
2022-12-03T23:20:29.143Z,98542.25
2022-12-03T23:22:56.031Z,98550.09
2022-12-03T23:25:22.860Z,98541.44
2022-12-03T23:27:51.079Z,98545.19
2022-12-03T23:30:18.132Z,98547.31
2022-12-03T23:32:45.068Z,98557.00
2022-12-03T23:35:12.614Z,98567.78
2022-12-03T23:37:42.955Z,98569.69
2022-12-03T23:40:11.270Z,98573.41
2022-12-03T23:42:38.235Z,98575.31
2022-12-03T23:45:08.033Z,98569.09
2022-12-03T23:47:34.941Z,98555.63
2022-12-03T23:50:01.809Z,98559.63
2022-12-03T23:52:28.750Z,98562.53
2022-12-03T23:54:55.665Z,98568.75
2022-12-03T23:57:22.643Z,98562.78
2022-12-03T23:59:49.560Z,98561.16
